Time;durP1;ratioP1;P1;durP2;ratioP2;P2;SDS_P1;SDS_P2;PMS_P1;PMS_P2;Temp;Humidity;BMP_temperature;BMP_pressure;BME280_temperature;BME280_humidity;BME280_pressure;Samples;Min_cycle;Max_cycle;Signal;HPM_P1;HPM_P2
2022/08/19 00:01:31;;;;;;;5.90;2.33;;;;;;;31.38;43.19;100511.59;4987097;28;20451;-74
2022/08/19 00:04:00;;;;;;;12.73;3.70;;;;;;;31.30;45.56;100520.94;4985234;28;20051;-80
2022/08/19 00:06:29;;;;;;;5.97;3.00;;;;;;;31.26;46.15;100518.56;4987891;28;20130;-74
2022/08/19 00:08:59;;;;;;;8.82;2.60;;;;;;;31.23;47.65;100527.63;4989361;28;20492;-78
2022/08/19 00:11:28;;;;;;;8.95;3.10;;;;;;;31.17;47.40;100532.47;4987787;28;20064;-79
2022/08/19 00:13:57;;;;;;;5.38;3.65;;;;;;;31.18;47.60;100542.22;4976413;28;20105;-77
2022/08/19 00:16:43;;;;;;;7.60;3.67;;;;;;;31.10;46.74;100535.50;4989791;28;20113;-76
2022/08/19 00:19:18;;;;;;;7.90;3.03;;;;;;;31.04;47.79;100543.03;4988004;28;20567;-79
2022/08/19 00:21:47;;;;;;;7.25;3.25;;;;;;;31.02;48.04;100540.47;4985582;28;20058;-79
2022/08/19 00:24:16;;;;;;;6.25;3.00;;;;;;;31.08;48.92;100537.44;4982820;28;20050;-77
2022/08/19 00:26:45;;;;;;;8.75;3.08;;;;;;;31.14;47.78;100520.16;4981164;28;20050;-78
2022/08/19 00:29:16;;;;;;;13.43;3.08;;;;;;;31.16;45.62;100514.75;4983476;28;20527;-76
2022/08/19 00:31:47;;;;;;;7.57;2.92;;;;;;;31.17;46.98;100498.59;4982477;28;20090;-75
2022/08/19 00:34:16;;;;;;;7.43;3.30;;;;;;;31.18;48.86;100503.00;4983502;28;20508;-78
2022/08/19 00:36:45;;;;;;;7.45;2.97;;;;;;;31.17;48.31;100492.38;4986143;28;20053;-81
2022/08/19 00:39:15;;;;;;;7.05;3.00;;;;;;;31.16;44.41;100496.03;4983168;28;20257;-78
2022/08/19 00:41:45;;;;;;;17.30;3.67;;;;;;;31.11;47.20;100515.00;4996032;28;20051;-78
2022/08/19 00:44:19;;;;;;;8.00;3.35;;;;;;;31.05;46.46;100515.38;4989549;28;20042;-82
2022/08/19 00:46:52;;;;;;;5.72;2.80;;;;;;;31.02;48.91;100508.41;4989859;28;20053;-81
2022/08/19 00:49:24;;;;;;;7.80;3.05;;;;;;;31.00;47.69;100494.28;4988974;28;20129;-81
2022/08/19 00:51:57;;;;;;;8.23;3.35;;;;;;;30.98;47.89;100492.66;4991628;28;20546;-77
2022/08/19 00:54:26;;;;;;;8.80;3.20;;;;;;;30.89;48.34;100468.19;4991821;28;20042;-82
2022/08/19 00:56:57;;;;;;;8.65;3.10;;;;;;;30.87;46.99;100446.06;4986421;28;20065;-82
2022/08/19 00:59:26;;;;;;;13.47;3.30;;;;;;;30.78;45.86;100430.53;4988406;28;20065;-81
2022/08/19 01:01:56;;;;;;;9.88;3.58;;;;;;;30.78;45.92;100427.03;4985787;28;20096;-82
2022/08/19 01:04:25;;;;;;;8.85;3.17;;;;;;;30.79;45.44;100434.09;4986665;28;20571;-78
2022/08/19 01:06:53;;;;;;;7.05;3.08;;;;;;;30.80;47.84;100430.47;4993826;28;20105;-81
2022/08/19 01:09:22;;;;;;;6.97;3.42;;;;;;;30.69;47.86;100442.66;4984268;28;20082;-81
2022/08/19 01:11:51;;;;;;;16.48;3.22;;;;;;;30.52;47.70;100471.31;4993497;28;20050;-74
2022/08/19 01:14:21;;;;;;;11.90;3.22;;;;;;;30.24;49.35;100489.72;4988721;28;20042;-79
2022/08/19 01:16:49;;;;;;;9.35;2.90;;;;;;;30.07;48.97;100473.81;4984864;28;20071;-79
2022/08/19 01:19:27;;;;;;;9.95;3.53;;;;;;;30.06;49.21;100453.41;4980066;28;20105;-75
2022/08/19 01:22:02;;;;;;;8.13;2.97;;;;;;;30.09;48.89;100434.56;4978463;28;20059;-78
2022/08/19 01:24:32;;;;;;;11.90;3.90;;;;;;;30.16;48.20;100427.94;4981885;28;20047;-78
2022/08/19 01:27:01;;;;;;;9.52;2.97;;;;;;;30.18;49.29;100420.69;4971199;28;20464;-80
2022/08/19 01:29:29;;;;;;;14.88;3.30;;;;;;;30.20;48.89;100453.50;4979278;28;20583;-76
2022/08/19 01:31:59;;;;;;;8.00;3.20;;;;;;;30.03;48.69;100448.25;4973983;28;20593;-80
2022/08/19 01:34:28;;;;;;;9.68;3.85;;;;;;;29.97;49.17;100432.59;4964760;28;20049;-79
2022/08/19 01:36:56;;;;;;;7.03;3.22;;;;;;;29.97;47.79;100405.94;4965035;28;20197;-80
2022/08/19 01:39:26;;;;;;;6.47;2.90;;;;;;;29.98;48.48;100420.97;4972425;28;20544;-81
2022/08/19 01:41:56;;;;;;;11.13;4.40;;;;;;;29.80;47.79;100444.19;4967629;28;20062;-78
2022/08/19 01:44:25;;;;;;;10.65;3.60;;;;;;;29.75;48.43;100440.94;4965859;28;20051;-73
2022/08/19 01:46:54;;;;;;;9.95;3.85;;;;;;;29.71;49.14;100392.28;4971694;28;20130;-78
2022/08/19 01:49:24;;;;;;;12.18;3.58;;;;;;;29.71;48.95;100402.94;4982153;28;20046;-80
2022/08/19 01:52:00;;;;;;;22.67;3.72;;;;;;;29.73;48.76;100410.81;4972265;28;20173;-76
2022/08/19 01:54:29;;;;;;;12.88;3.53;;;;;;;29.71;49.67;100436.72;4959448;28;20043;-77
2022/08/19 01:57:02;;;;;;;7.60;3.53;;;;;;;29.66;49.71;100458.25;4964913;28;20050;-75
2022/08/19 01:59:32;;;;;;;7.80;3.38;;;;;;;29.59;49.99;100446.22;4962064;28;20121;-74
2022/08/19 02:02:01;;;;;;;12.98;4.13;;;;;;;29.58;49.63;100436.50;4965094;28;20058;-74
2022/08/19 02:04:29;;;;;;;8.77;3.42;;;;;;;29.59;49.33;100462.22;4962945;28;20055;-74
2022/08/19 02:06:59;;;;;;;7.03;3.15;;;;;;;29.58;51.00;100460.50;4963250;28;20504;-75
2022/08/19 02:09:28;;;;;;;9.57;4.45;;;;;;;29.57;50.93;100456.09;4969328;28;20066;-72
2022/08/19 02:11:56;;;;;;;9.25;3.67;;;;;;;29.56;50.89;100446.41;4973262;28;20544;-73
2022/08/19 02:14:27;;;;;;;8.70;3.33;;;;;;;29.57;49.46;100433.00;4969723;28;20051;-73
2022/08/19 02:16:55;;;;;;;7.10;3.70;;;;;;;29.58;47.83;100428.50;4968524;28;20120;-76
2022/08/19 02:19:24;;;;;;;8.15;3.08;;;;;;;29.59;50.17;100435.56;4965143;28;20262;-75
2022/08/19 02:21:53;;;;;;;6.63;3.35;;;;;;;29.54;50.99;100442.94;4970338;28;20051;-71
2022/08/19 02:24:21;;;;;;;8.90;3.95;;;;;;;29.51;51.21;100430.66;4960928;28;20109;-72
2022/08/19 02:26:50;;;;;;;7.95;3.40;;;;;;;29.48;49.95;100416.63;4966779;28;20097;-72
2022/08/19 02:29:18;;;;;;;10.38;3.75;;;;;;;29.43;48.85;100420.38;4968209;28;20101;-72
2022/08/19 02:31:48;;;;;;;7.70;3.10;;;;;;;29.36;49.98;100427.00;4965228;28;20477;-75
2022/08/19 02:34:17;;;;;;;9.27;3.00;;;;;;;29.38;48.80;100437.59;4961122;28;20051;-73
2022/08/19 02:36:46;;;;;;;5.75;3.45;;;;;;;29.42;49.08;100456.00;4965764;28;20050;-75
2022/08/19 02:39:13;;;;;;;6.20;3.30;;;;;;;29.45;47.91;100471.81;4962393;28;20058;-74
2022/08/19 02:41:42;;;;;;;8.07;3.15;;;;;;;29.49;47.63;100488.53;4970901;28;20246;-74
2022/08/19 02:44:10;;;;;;;8.82;3.40;;;;;;;29.50;47.33;100474.22;4962157;28;20065;-73
2022/08/19 02:46:39;;;;;;;10.55;3.50;;;;;;;29.51;47.39;100469.78;4965789;28;20051;-74
2022/08/19 02:49:10;;;;;;;5.57;3.20;;;;;;;29.52;50.11;100479.50;4965603;28;20097;-77
2022/08/19 02:51:40;;;;;;;9.57;3.40;;;;;;;29.47;49.58;100489.53;4967496;28;20050;-75
2022/08/19 02:54:10;;;;;;;7.60;4.32;;;;;;;29.33;48.55;100471.63;4963194;28;20062;-75
2022/08/19 02:56:40;;;;;;;8.80;3.28;;;;;;;29.26;48.51;100457.75;4969924;28;20112;-74
2022/08/19 02:59:10;;;;;;;7.78;2.97;;;;;;;29.22;48.92;100458.88;4961381;28;20054;-72
2022/08/19 03:01:40;;;;;;;9.23;3.58;;;;;;;29.17;50.53;100460.91;4963644;28;20054;-76
2022/08/19 03:04:12;;;;;;;7.28;3.42;;;;;;;29.06;49.75;100466.78;4960034;28;20214;-74
2022/08/19 03:06:43;;;;;;;6.10;3.45;;;;;;;29.03;51.67;100469.59;4965829;28;20122;-75
2022/08/19 03:09:11;;;;;;;7.53;3.33;;;;;;;28.98;51.14;100469.84;4965653;28;20043;-71
2022/08/19 03:11:40;;;;;;;8.57;3.30;;;;;;;28.96;50.73;100474.38;4962644;28;20093;-73
2022/08/19 03:14:10;;;;;;;6.38;3.40;;;;;;;28.91;50.77;100468.44;4969018;28;20519;-70
2022/08/19 03:16:44;;;;;;;6.25;3.42;;;;;;;28.90;50.90;100469.34;4970697;28;20526;-71
2022/08/19 03:19:15;;;;;;;7.80;3.38;;;;;;;28.87;51.63;100474.84;4983880;28;20046;-71
2022/08/19 03:21:45;;;;;;;9.70;3.35;;;;;;;28.83;51.49;100479.47;4982928;28;20105;-70
2022/08/19 03:24:15;;;;;;;5.55;3.35;;;;;;;28.80;51.61;100462.81;4983736;28;20126;-72
2022/08/19 03:26:47;;;;;;;11.15;4.30;;;;;;;28.78;51.07;100467.34;4982382;28;20046;-73
2022/08/19 03:29:22;;;;;;;9.00;3.67;;;;;;;28.74;51.89;100468.44;4975528;28;20138;-71
2022/08/19 03:31:51;;;;;;;10.50;3.55;;;;;;;28.72;51.27;100471.16;4983072;28;20096;-72
2022/08/19 03:34:25;;;;;;;6.53;3.50;;;;;;;28.71;50.86;100481.91;4983437;28;20121;-71
2022/08/19 03:36:55;;;;;;;8.18;3.60;;;;;;;28.68;51.33;100469.63;4987026;28;20081;-70
2022/08/19 03:39:25;;;;;;;10.00;3.50;;;;;;;28.68;51.04;100466.06;4984711;28;20050;-70
2022/08/19 03:41:58;;;;;;;8.85;3.40;;;;;;;28.66;52.84;100470.63;4986168;28;20559;-72
2022/08/19 03:44:26;;;;;;;9.65;3.60;;;;;;;28.59;53.05;100475.41;4983055;28;20069;-69
2022/08/19 03:46:56;;;;;;;10.00;3.60;;;;;;;28.53;52.75;100475.69;4979033;28;20054;-73
2022/08/19 03:49:29;;;;;;;8.57;3.55;;;;;;;28.50;52.45;100482.03;4982962;28;20051;-71
2022/08/19 03:52:00;;;;;;;6.85;3.33;;;;;;;28.49;52.61;100480.28;4982321;28;20543;-69
2022/08/19 03:54:29;;;;;;;10.43;3.78;;;;;;;28.49;52.31;100482.09;4985925;28;20054;-71
2022/08/19 03:56:58;;;;;;;12.70;3.50;;;;;;;28.46;52.32;100480.44;4980448;28;20665;-73
2022/08/19 03:59:29;;;;;;;7.38;4.15;;;;;;;28.44;52.98;100481.44;4983915;28;20051;-70
2022/08/19 04:02:00;;;;;;;7.05;3.58;;;;;;;28.44;52.97;100490.28;4986117;28;20050;-71
2022/08/19 04:04:31;;;;;;;11.35;3.72;;;;;;;28.41;53.55;100495.75;4988161;28;20046;-73
2022/08/19 04:06:59;;;;;;;10.13;3.95;;;;;;;28.33;54.56;100500.59;4983701;28;20054;-72
2022/08/19 04:09:28;;;;;;;7.95;3.35;;;;;;;28.28;55.28;100507.94;4984883;28;20500;-71
2022/08/19 04:11:59;;;;;;;9.65;3.80;;;;;;;28.23;54.81;100499.31;4983801;28;20511;-68
2022/08/19 04:14:31;;;;;;;9.32;3.55;;;;;;;28.19;54.46;100510.09;4984758;28;20046;-70
2022/08/19 04:17:01;;;;;;;10.80;3.42;;;;;;;28.16;54.26;100504.06;4982433;28;20050;-72
2022/08/19 04:19:32;;;;;;;7.13;3.88;;;;;;;28.07;54.77;100500.03;4964806;28;20054;-73
2022/08/19 04:22:00;;;;;;;11.25;3.17;;;;;;;28.07;56.55;100502.69;4965429;28;20547;-73
2022/08/19 04:24:29;;;;;;;6.07;3.45;;;;;;;28.01;55.90;100504.78;4969437;28;20963;-74
2022/08/19 04:26:58;;;;;;;9.40;3.95;;;;;;;28.01;55.62;100516.28;4965510;28;20421;-72
2022/08/19 04:29:27;;;;;;;7.15;3.20;;;;;;;27.96;55.93;100515.63;4968488;28;20050;-71
2022/08/19 04:31:57;;;;;;;6.88;3.50;;;;;;;27.94;55.92;100507.72;4970972;28;20054;-70
2022/08/19 04:34:27;;;;;;;5.90;3.80;;;;;;;27.94;55.75;100514.84;4969150;28;20054;-72
2022/08/19 04:36:59;;;;;;;9.75;3.80;;;;;;;27.91;55.31;100504.38;4959677;28;20051;-71
2022/08/19 04:45:02;;;;;;;6.53;3.60;;;;;;;27.83;56.57;100520.63;4966685;28;20505;-71
2022/08/19 04:47:32;;;;;;;8.18;3.88;;;;;;;27.79;56.98;100511.09;4970330;28;20161;-72
2022/08/19 04:50:01;;;;;;;9.88;4.43;;;;;;;27.76;56.58;100511.19;4970182;28;20137;-71
2022/08/19 04:52:37;;;;;;;7.57;3.92;;;;;;;27.73;56.72;100517.53;4978723;28;20057;-74
2022/08/19 04:55:06;;;;;;;5.78;3.30;;;;;;;27.71;57.96;100523.84;4973276;28;20061;-72
2022/08/19 04:57:36;;;;;;;8.75;3.50;;;;;;;27.68;57.63;100518.69;4978528;28;20055;-74
2022/08/19 05:00:09;;;;;;;8.25;3.78;;;;;;;27.63;57.59;100513.56;4970986;28;20090;-71
2022/08/19 05:02:38;;;;;;;6.75;3.80;;;;;;;27.63;57.56;100521.56;4972029;28;20121;-71
2022/08/19 05:05:07;;;;;;;5.82;3.45;;;;;;;27.61;57.37;100517.25;4975955;28;20054;-72
2022/08/19 05:07:39;;;;;;;7.50;3.42;;;;;;;27.61;57.61;100544.69;4968662;28;20054;-73
2022/08/19 05:10:09;;;;;;;11.25;3.80;;;;;;;27.58;58.25;100535.06;4975859;28;20054;-73
2022/08/19 05:12:38;;;;;;;8.98;4.20;;;;;;;27.57;57.60;100533.31;4979994;28;20054;-72
2022/08/19 05:15:08;;;;;;;8.70;3.50;;;;;;;27.54;57.09;100536.09;4980133;28;20497;-75
2022/08/19 05:17:37;;;;;;;8.05;3.53;;;;;;;27.53;58.45;100541.47;4976819;28;20059;-71
2022/08/19 05:22:57;;;;;;;13.30;4.40;;;;;;;27.52;57.83;100556.56;4973562;28;20065;-72
2022/08/19 05:25:25;;;;;;;11.45;4.30;;;;;;;27.53;57.44;100552.13;4964042;28;20047;-72
2022/08/19 05:28:00;;;;;;;7.55;3.33;;;;;;;27.52;57.04;100559.22;4972278;28;20102;-75
2022/08/19 05:30:28;;;;;;;7.88;3.05;;;;;;;27.50;57.00;100553.13;4968256;28;20061;-73
2022/08/19 05:32:59;;;;;;;6.60;3.58;;;;;;;27.51;58.45;100562.84;4971621;28;20050;-74
2022/08/19 05:35:33;;;;;;;6.78;3.80;;;;;;;27.43;58.33;100554.31;4977901;28;20052;-70
2022/08/19 05:38:04;;;;;;;10.20;3.97;;;;;;;27.36;58.79;100545.75;4966459;28;20051;-71
2022/08/19 05:40:33;;;;;;;7.20;3.40;;;;;;;27.32;59.12;100543.28;4974247;28;20567;-74
2022/08/19 05:43:01;;;;;;;6.00;3.75;;;;;;;27.30;59.11;100545.16;4977408;28;20054;-71
2022/08/19 05:45:32;;;;;;;4.90;3.50;;;;;;;27.27;59.02;100545.28;4983064;28;20055;-74
2022/08/19 05:48:01;;;;;;;7.35;3.65;;;;;;;27.24;59.56;100546.28;4972870;28;20055;-75
2022/08/19 05:50:30;;;;;;;8.57;3.33;;;;;;;27.20;60.24;100552.66;4964223;28;20050;-74
2022/08/19 05:52:58;;;;;;;5.95;3.20;;;;;;;27.13;59.25;100554.69;4983249;28;20066;-77
2022/08/19 05:55:28;;;;;;;7.82;3.10;;;;;;;27.00;59.42;100552.59;4970951;28;20047;-76
2022/08/19 05:57:57;;;;;;;3.88;2.78;;;;;;;26.85;59.44;100544.38;4975655;28;20113;-76
2022/08/19 06:00:26;;;;;;;7.05;3.65;;;;;;;26.78;60.57;100556.16;4967663;28;20055;-75
2022/08/19 06:02:56;;;;;;;7.18;4.30;;;;;;;26.75;60.40;100553.63;4973375;28;20050;-74
2022/08/19 06:05:24;;;;;;;9.77;3.10;;;;;;;26.73;58.53;100553.69;4977498;28;20055;-80
2022/08/19 06:07:53;;;;;;;5.00;2.15;;;;;;;26.67;58.51;100548.63;4976815;28;20121;-75
2022/08/19 06:10:21;;;;;;;6.35;2.70;;;;;;;26.67;58.09;100556.59;4976413;28;20134;-74
2022/08/19 06:12:52;;;;;;;6.85;2.53;;;;;;;26.60;59.04;100555.13;4974881;28;20050;-75
2022/08/19 06:15:23;;;;;;;5.43;2.40;;;;;;;26.45;58.97;100550.38;4977428;28;20054;-74
2022/08/19 06:17:51;;;;;;;;;;;;;;;26.38;59.52;100548.91;4979752;28;20503;-75
2022/08/19 06:20:20;;;;;;;3.53;2.10;;;;;;;26.32;60.09;100547.38;4971658;28;19985;-75
2022/08/19 06:22:51;;;;;;;2.40;2.00;;;;;;;26.20;59.32;100545.19;4973693;28;20066;-79
2022/08/19 06:25:20;;;;;;;9.23;2.10;;;;;;;26.16;59.20;100546.22;4969861;28;20513;-75
2022/08/19 06:27:48;;;;;;;3.45;2.42;;;;;;;26.16;60.47;100546.22;4976992;28;20046;-75
2022/08/19 06:30:19;;;;;;;3.92;2.67;;;;;;;26.17;61.98;100548.81;4976074;28;20129;-75
2022/08/19 06:32:47;;;;;;;6.05;2.40;;;;;;;26.15;61.00;100550.66;4982906;28;20093;-76
2022/08/19 06:35:16;;;;;;;4.75;1.92;;;;;;;26.10;59.33;100558.78;4972678;28;20078;-76
2022/08/19 06:37:44;;;;;;;4.53;2.30;;;;;;;26.06;59.30;100548.38;4971008;28;20786;-75
2022/08/19 06:40:14;;;;;;;5.63;2.28;;;;;;;25.96;59.18;100553.16;4968894;28;20113;-75
2022/08/19 06:42:42;;;;;;;7.10;2.90;;;;;;;25.89;63.29;100562.25;4975170;28;20073;-74
2022/08/19 06:45:11;;;;;;;6.53;2.15;;;;;;;25.74;63.22;100565.44;4966066;28;20666;-78
2022/08/19 06:47:46;;;;;;;3.33;1.90;;;;;;;25.61;61.33;100568.53;4972519;28;20205;-75
2022/08/19 06:50:15;;;;;;;4.68;2.00;;;;;;;25.56;60.73;100573.13;4968078;28;20078;-75
2022/08/19 06:52:43;;;;;;;3.63;2.00;;;;;;;25.53;61.82;100575.88;4971910;28;20126;-74
2022/08/19 06:55:12;;;;;;;7.43;2.55;;;;;;;25.45;61.17;100573.50;4964478;28;20047;-77
2022/08/19 06:57:42;;;;;;;3.47;1.95;;;;;;;25.41;60.21;100578.97;4971535;28;20633;-77
2022/08/19 07:00:13;;;;;;;4.93;2.00;;;;;;;25.39;61.90;100580.81;4967173;28;20165;-80
2022/08/19 07:02:43;;;;;;;5.80;2.33;;;;;;;25.36;60.81;100584.44;4969891;28;20050;-75
2022/08/19 07:05:12;;;;;;;4.63;1.90;;;;;;;25.37;60.29;100582.63;4963987;28;20058;-75
2022/08/19 07:07:42;;;;;;;4.30;1.83;;;;;;;25.33;59.92;100578.34;4964984;28;20062;-76
2022/08/19 07:10:11;;;;;;;3.72;2.05;;;;;;;25.25;61.76;100587.44;4969764;28;20053;-78
2022/08/19 07:12:40;;;;;;;6.30;2.20;;;;;;;25.11;60.15;100581.72;4965163;28;20054;-77
2022/08/19 07:15:10;;;;;;;2.67;1.60;;;;;;;24.99;59.90;100590.03;4963363;28;20039;-76
2022/08/19 07:17:39;;;;;;;3.38;1.58;;;;;;;24.83;60.65;100585.28;4976899;28;20055;-80
2022/08/19 07:20:11;;;;;;;3.00;1.40;;;;;;;24.73;60.26;100599.69;4968356;28;20060;-78
2022/08/19 07:22:40;;;;;;;2.95;1.83;;;;;;;24.63;60.03;100603.56;4964308;28;20050;-78
2022/08/19 07:25:10;;;;;;;4.78;1.73;;;;;;;24.50;60.94;100602.22;4967159;28;20073;-77
2022/08/19 07:27:39;;;;;;;2.97;1.45;;;;;;;24.44;60.59;100609.38;4968908;28;20129;-77
2022/08/19 07:30:11;;;;;;;3.75;1.77;;;;;;;24.42;61.25;100613.00;4966535;28;20046;-80
2022/08/19 07:32:40;;;;;;;3.15;1.70;;;;;;;24.37;60.46;100618.41;4960158;28;20142;-77
2022/08/19 07:35:11;;;;;;;4.75;1.70;;;;;;;24.33;61.07;100622.06;4968413;28;20055;-77
2022/08/19 07:37:43;;;;;;;4.03;1.52;;;;;;;24.25;60.50;100618.75;4970842;28;20097;-77
2022/08/19 07:40:13;;;;;;;3.38;1.30;;;;;;;24.15;60.37;100614.66;4967874;28;20069;-76
2022/08/19 07:42:42;;;;;;;2.92;1.40;;;;;;;24.06;60.37;100623.72;4965729;28;20051;-79
2022/08/19 07:45:11;;;;;;;3.72;1.38;;;;;;;23.94;60.95;100622.31;4966286;28;20057;-76
2022/08/19 07:47:40;;;;;;;5.68;1.45;;;;;;;23.83;61.29;100621.72;4975571;28;20492;-77
2022/08/19 07:50:12;;;;;;;3.13;1.50;;;;;;;23.66;61.92;100619.50;4974541;28;20053;-78
2022/08/19 07:52:43;;;;;;;2.70;1.63;;;;;;;23.53;62.71;100620.75;4980637;28;20125;-76
2022/08/19 07:55:12;;;;;;;2.63;1.67;;;;;;;23.44;62.89;100618.34;4978836;28;20054;-80
2022/08/19 07:57:40;;;;;;;2.40;1.48;;;;;;;23.39;62.92;100623.75;4970110;28;20055;-78
2022/08/19 08:00:10;;;;;;;2.47;1.20;;;;;;;23.33;63.26;100621.25;4965452;28;20516;-80
2022/08/19 08:02:39;;;;;;;1.73;1.35;;;;;;;23.29;63.17;100624.88;4967333;28;20102;-78
2022/08/19 08:10:40;;;;;;;2.40;1.40;;;;;;;23.23;64.53;100630.28;4966004;28;20053;-81
2022/08/19 08:13:08;;;;;;;2.28;1.30;;;;;;;23.25;64.03;100628.50;4969584;28;20113;-80
2022/08/19 08:15:38;;;;;;;3.85;1.40;;;;;;;23.25;64.17;100632.03;4971772;28;20101;-76
2022/08/19 08:18:07;;;;;;;2.88;1.52;;;;;;;23.25;64.17;100639.03;4980221;28;20118;-75
2022/08/19 08:20:37;;;;;;;5.40;1.88;;;;;;;23.23;63.78;100638.22;4989746;28;20140;-77
2022/08/19 08:25:59;;;;;;;2.05;1.77;;;;;;;23.15;63.46;100636.63;4966853;28;20210;-79
2022/08/19 08:28:29;;;;;;;4.30;1.63;;;;;;;23.09;63.53;100634.16;4986372;28;20398;-75
2022/08/19 08:30:58;;;;;;;3.03;1.27;;;;;;;23.06;64.00;100633.34;4986808;28;20042;-77
2022/08/19 08:33:30;;;;;;;4.00;1.25;;;;;;;23.03;63.51;100641.38;4987286;28;20531;-75
2022/08/19 08:36:00;;;;;;;3.70;1.38;;;;;;;23.00;64.09;100643.16;4987458;28;20637;-76
2022/08/19 08:38:29;;;;;;;3.08;1.30;;;;;;;22.96;63.94;100643.25;4988261;28;20058;-75
2022/08/19 08:41:06;;;;;;;4.80;1.40;;;;;;;22.92;64.21;100647.72;4996755;28;20489;-76
2022/08/19 08:43:36;;;;;;;4.15;1.38;;;;;;;22.87;63.94;100657.50;4988325;28;20055;-76
2022/08/19 08:46:09;;;;;;;1.88;1.08;;;;;;;22.81;64.05;100660.28;4984306;28;20120;-77
2022/08/19 08:48:46;;;;;;;1.63;1.10;;;;;;;22.77;64.39;100653.34;4986904;28;20057;-74
2022/08/19 08:51:21;;;;;;;2.38;1.20;;;;;;;22.73;64.84;100663.09;4985215;28;20054;-76
2022/08/19 08:53:53;;;;;;;1.83;1.15;;;;;;;22.66;64.54;100658.88;4987391;28;20084;-77
2022/08/19 08:56:22;;;;;;;2.42;1.08;;;;;;;22.61;65.10;100662.47;4986346;28;20113;-76
2022/08/19 08:58:58;;;;;;;3.22;1.63;;;;;;;22.52;65.22;100661.81;4986559;28;20078;-77
2022/08/19 09:01:27;;;;;;;3.17;1.10;;;;;;;22.48;65.83;100668.03;4987548;28;20050;-78
2022/08/19 09:03:56;;;;;;;2.30;1.40;;;;;;;22.43;66.55;100669.03;4989830;28;20570;-79
2022/08/19 09:06:33;;;;;;;1.42;1.10;;;;;;;22.30;66.66;100668.41;4986639;28;20059;-76
2022/08/19 09:09:13;;;;;;;4.45;1.30;;;;;;;22.20;66.46;100667.72;4985270;28;20050;-76
2022/08/19 09:11:58;;;;;;;1.58;1.20;;;;;;;22.14;66.43;100671.31;4988740;28;20049;-77
2022/08/19 09:14:37;;;;;;;2.40;1.20;;;;;;;22.10;66.85;100671.41;4990693;28;20420;-76
2022/08/19 09:17:07;;;;;;;5.30;1.33;;;;;;;22.08;67.38;100678.47;4989117;28;20050;-78
2022/08/19 09:19:37;;;;;;;4.85;1.15;;;;;;;22.03;66.93;100681.19;4990119;28;20050;-78
2022/08/19 09:22:07;;;;;;;1.23;0.90;;;;;;;22.00;67.13;100681.25;4990104;28;20049;-79
2022/08/19 09:24:36;;;;;;;1.88;0.90;;;;;;;21.95;66.64;100688.38;4986193;28;20073;-82
2022/08/19 09:27:04;;;;;;;2.33;1.08;;;;;;;21.84;67.03;100691.22;4988607;28;20511;-79
2022/08/19 09:29:33;;;;;;;1.95;1.02;;;;;;;21.78;66.95;100696.56;4987275;28;20050;-76
2022/08/19 09:32:01;;;;;;;1.17;0.88;;;;;;;21.74;67.20;100687.03;4993186;28;20042;-78
2022/08/19 09:34:30;;;;;;;3.05;0.80;;;;;;;21.71;67.05;100694.94;4986851;28;20162;-77
2022/08/19 09:36:59;;;;;;;1.40;0.80;;;;;;;21.67;67.34;100702.06;4990218;28;20136;-78
2022/08/19 09:39:30;;;;;;;1.08;0.85;;;;;;;21.65;67.55;100697.72;4987425;28;20062;-77
2022/08/19 09:41:59;;;;;;;1.42;0.73;;;;;;;21.62;67.85;100705.66;4987535;28;20057;-78
2022/08/19 09:44:27;;;;;;;1.63;0.75;;;;;;;21.58;67.89;100703.94;4984063;28;20051;-77
2022/08/19 09:46:56;;;;;;;3.38;1.00;;;;;;;21.52;68.27;100699.66;4982121;28;20670;-75
2022/08/19 09:49:24;;;;;;;1.27;0.60;;;;;;;21.42;68.22;100701.59;4986881;28;20042;-77
2022/08/19 09:51:55;;;;;;;2.75;0.60;;;;;;;21.38;68.02;100710.38;4988371;28;20047;-78
2022/08/19 09:54:25;;;;;;;1.67;0.60;;;;;;;21.32;68.19;100703.44;4989298;28;20053;-76
2022/08/19 09:56:55;;;;;;;0.95;0.65;;;;;;;21.28;68.38;100708.78;4987948;28;20078;-77
2022/08/19 09:59:24;;;;;;;2.50;0.50;;;;;;;21.22;68.87;100703.63;4995952;28;20511;-77
2022/08/19 10:01:52;;;;;;;4.35;0.68;;;;;;;21.16;69.11;100704.56;4986812;28;20046;-76
2022/08/19 10:04:22;;;;;;;1.67;0.55;;;;;;;21.09;70.14;100711.69;4989232;28;20121;-80
2022/08/19 10:06:51;;;;;;;1.38;0.60;;;;;;;21.00;70.05;100700.44;4988177;28;20133;-80
2022/08/19 10:09:20;;;;;;;0.68;0.40;;;;;;;20.85;71.13;100702.41;4990546;28;20054;-79
2022/08/19 10:11:49;;;;;;;0.65;0.52;;;;;;;20.83;71.14;100708.56;4989071;28;20063;-79
2022/08/19 10:14:22;;;;;;;0.90;0.60;;;;;;;20.79;71.24;100717.38;4986888;28;20844;-77
2022/08/19 10:16:51;;;;;;;3.08;0.60;;;;;;;20.73;71.50;100723.63;4983821;28;20062;-79
2022/08/19 10:19:20;;;;;;;1.10;0.60;;;;;;;20.72;71.56;100727.13;4969695;28;20066;-79
2022/08/19 10:21:48;;;;;;;1.35;0.50;;;;;;;20.73;71.55;100728.88;4959178;28;20042;-76
2022/08/19 10:24:17;;;;;;;0.80;0.50;;;;;;;20.75;71.24;100726.19;4963518;28;20101;-76
2022/08/19 10:26:48;;;;;;;2.55;0.60;;;;;;;20.74;71.17;100724.47;4964901;28;20055;-77
2022/08/19 10:29:17;;;;;;;0.43;0.35;;;;;;;20.76;71.06;100731.44;4966574;28;20053;-76
2022/08/19 10:31:47;;;;;;;0.55;0.50;;;;;;;20.74;71.24;100729.72;4967469;28;20054;-79
2022/08/19 10:34:17;;;;;;;0.32;0.30;;;;;;;20.70;71.34;100724.50;4963749;28;20045;-77
2022/08/19 10:36:45;;;;;;;0.60;0.50;;;;;;;20.67;71.70;100718.41;4960374;28;20142;-79
2022/08/19 10:39:14;;;;;;;0.43;0.30;;;;;;;20.64;71.66;100721.97;4970639;28;20097;-77
2022/08/19 10:41:43;;;;;;;3.60;0.30;;;;;;;20.62;71.90;100725.50;4974173;28;20089;-77
2022/08/19 10:44:15;;;;;;;1.27;0.40;;;;;;;20.60;71.73;100728.13;4965035;28;20051;-76
2022/08/19 10:46:46;;;;;;;0.52;0.32;;;;;;;20.62;71.63;100720.25;4960925;28;20050;-77
2022/08/19 10:49:15;;;;;;;0.80;0.50;;;;;;;20.62;72.11;100725.50;4966491;28;20051;-77
2022/08/19 10:57:11;;;;;;;0.57;0.47;;;;;;;20.57;72.21;100743.97;4975679;28;20055;-81
2022/08/19 10:59:39;;;;;;;0.90;0.50;;;;;;;20.60;72.54;100746.53;4969378;28;20042;-78
2022/08/19 11:02:11;;;;;;;0.73;0.40;;;;;;;20.53;73.02;100758.00;4969383;28;20043;-78
2022/08/19 11:04:41;;;;;;;0.75;0.50;;;;;;;20.51;73.24;100754.50;4970218;28;20058;-76
2022/08/19 11:07:10;;;;;;;0.68;0.45;;;;;;;20.51;73.13;100754.50;4968283;28;20114;-76
2022/08/19 11:09:43;;;;;;;1.27;0.40;;;;;;;20.52;73.05;100750.97;4963087;28;20608;-76
2022/08/19 11:12:13;;;;;;;1.27;0.52;;;;;;;20.51;73.13;100749.25;4967974;28;20520;-79
2022/08/19 11:14:41;;;;;;;0.73;0.40;;;;;;;20.44;73.64;100747.59;4962372;28;20044;-76
2022/08/19 11:17:13;;;;;;;0.82;0.60;;;;;;;20.41;73.59;100750.22;4976774;28;20054;-76
2022/08/19 11:19:42;;;;;;;0.77;0.40;;;;;;;20.40;73.67;100756.38;4967790;28;20058;-80
2022/08/19 11:22:11;;;;;;;1.45;0.45;;;;;;;20.39;74.05;100752.03;4973586;28;20074;-80
2022/08/19 11:24:39;;;;;;;1.30;0.73;;;;;;;20.39;73.89;100758.16;4979105;28;20051;-77
2022/08/19 11:27:11;;;;;;;2.20;0.50;;;;;;;20.34;74.06;100752.06;4966330;28;20047;-76
2022/08/19 11:29:41;;;;;;;1.83;0.35;;;;;;;20.33;74.54;100759.97;4976895;28;20046;-75
2022/08/19 11:32:14;;;;;;;0.75;0.40;;;;;;;20.33;74.69;100759.97;4972514;28;20047;-75
2022/08/19 11:34:42;;;;;;;0.30;0.30;;;;;;;20.36;74.77;100762.56;4977662;28;20046;-75
2022/08/19 11:37:11;;;;;;;1.17;0.40;;;;;;;20.41;74.48;100766.00;4975329;28;20502;-76
2022/08/19 11:39:40;;;;;;;0.70;0.43;;;;;;;20.46;73.81;100759.81;4963589;28;20051;-76
2022/08/19 11:44:50;;;;;;;2.40;0.50;;;;;;;20.50;73.84;100758.91;4963082;28;20038;-76
2022/08/19 11:47:21;;;;;;;1.05;0.40;;;;;;;20.48;74.22;100767.69;4963521;28;20047;-76
2022/08/19 11:49:50;;;;;;;1.17;0.40;;;;;;;20.42;73.98;100763.34;4964635;28;20051;-76
2022/08/19 11:52:18;;;;;;;1.77;0.82;;;;;;;20.41;74.17;100768.63;4970023;28;20055;-76
2022/08/19 11:54:47;;;;;;;0.68;0.45;;;;;;;20.39;74.17;100771.28;4967586;28;20054;-79
2022/08/19 11:57:16;;;;;;;0.77;0.45;;;;;;;20.36;74.59;100775.69;4974876;28;20108;-82
2022/08/19 11:59:50;;;;;;;1.00;0.40;;;;;;;20.35;74.52;100773.97;4960930;28;20128;-83
2022/08/19 12:02:21;;;;;;;1.50;0.40;;;;;;;20.31;74.88;100775.75;4973337;28;20062;-82